sensor_id;sensor_type;location;lat;lon;timestamp;P1;durP1;ratioP1;P2;durP2;ratioP2
16029;SDS011;34770;49.272;11.070;2023-01-09T00:02:11;14.53;;;10.87;;
16029;SDS011;34770;49.272;11.070;2023-01-09T00:04:36;12.33;;;10.40;;
16029;SDS011;34770;49.272;11.070;2023-01-09T00:07:02;13.73;;;11.03;;
16029;SDS011;34770;49.272;11.070;2023-01-09T00:09:28;14.93;;;11.10;;
16029;SDS011;34770;49.272;11.070;2023-01-09T00:11:53;14.23;;;10.77;;
16029;SDS011;34770;49.272;11.070;2023-01-09T00:14:20;14.10;;;10.53;;
16029;SDS011;34770;49.272;11.070;2023-01-09T00:16:47;14.63;;;11.47;;
16029;SDS011;34770;49.272;11.070;2023-01-09T00:19:12;14.53;;;11.10;;
16029;SDS011;34770;49.272;11.070;2023-01-09T00:21:38;14.07;;;11.93;;
16029;SDS011;34770;49.272;11.070;2023-01-09T00:24:04;13.97;;;10.40;;
16029;SDS011;34770;49.272;11.070;2023-01-09T00:28:58;14.57;;;11.10;;
16029;SDS011;34770;49.272;11.070;2023-01-09T00:31:24;14.17;;;11.67;;
16029;SDS011;34770;49.272;11.070;2023-01-09T00:33:53;14.37;;;11.03;;
16029;SDS011;34770;49.272;11.070;2023-01-09T00:36:23;14.57;;;11.70;;
16029;SDS011;34770;49.272;11.070;2023-01-09T00:38:49;16.10;;;12.47;;
16029;SDS011;34770;49.272;11.070;2023-01-09T00:41:16;16.53;;;12.53;;
16029;SDS011;34770;49.272;11.070;2023-01-09T00:43:49;17.77;;;12.77;;
16029;SDS011;34770;49.272;11.070;2023-01-09T00:46:19;16.03;;;12.37;;
16029;SDS011;34770;49.272;11.070;2023-01-09T00:48:49;15.27;;;11.67;;
16029;SDS011;34770;49.272;11.070;2023-01-09T00:51:15;17.43;;;12.33;;
16029;SDS011;34770;49.272;11.070;2023-01-09T00:53:43;16.43;;;12.90;;
16029;SDS011;34770;49.272;11.070;2023-01-09T00:56:10;17.07;;;12.93;;
16029;SDS011;34770;49.272;11.070;2023-01-09T00:58:40;16.40;;;12.50;;
16029;SDS011;34770;49.272;11.070;2023-01-09T01:01:06;19.43;;;13.60;;
16029;SDS011;34770;49.272;11.070;2023-01-09T01:03:32;18.77;;;13.00;;
16029;SDS011;34770;49.272;11.070;2023-01-09T01:05:57;16.77;;;13.10;;
16029;SDS011;34770;49.272;11.070;2023-01-09T01:08:41;18.20;;;12.87;;
16029;SDS011;34770;49.272;11.070;2023-01-09T01:11:07;22.97;;;14.07;;
16029;SDS011;34770;49.272;11.070;2023-01-09T01:13:34;16.60;;;11.93;;
16029;SDS011;34770;49.272;11.070;2023-01-09T01:16:04;17.90;;;14.03;;
16029;SDS011;34770;49.272;11.070;2023-01-09T01:18:31;19.13;;;13.10;;
16029;SDS011;34770;49.272;11.070;2023-01-09T01:20:56;18.57;;;13.90;;
16029;SDS011;34770;49.272;11.070;2023-01-09T01:23:22;20.77;;;13.53;;
16029;SDS011;34770;49.272;11.070;2023-01-09T01:25:47;18.07;;;12.83;;
16029;SDS011;34770;49.272;11.070;2023-01-09T01:28:15;16.70;;;11.63;;
16029;SDS011;34770;49.272;11.070;2023-01-09T01:30:41;18.13;;;12.90;;
16029;SDS011;34770;49.272;11.070;2023-01-09T01:33:08;15.70;;;12.00;;
16029;SDS011;34770;49.272;11.070;2023-01-09T01:35:34;16.77;;;12.77;;
16029;SDS011;34770;49.272;11.070;2023-01-09T01:38:00;16.57;;;12.57;;
16029;SDS011;34770;49.272;11.070;2023-01-09T01:40:26;16.53;;;12.77;;
16029;SDS011;34770;49.272;11.070;2023-01-09T01:42:52;18.20;;;13.63;;
16029;SDS011;34770;49.272;11.070;2023-01-09T01:45:19;17.60;;;12.93;;
16029;SDS011;34770;49.272;11.070;2023-01-09T01:47:55;18.47;;;13.37;;
16029;SDS011;34770;49.272;11.070;2023-01-09T01:53:09;16.03;;;12.37;;
16029;SDS011;34770;49.272;11.070;2023-01-09T01:55:38;15.20;;;12.20;;
16029;SDS011;34770;49.272;11.070;2023-01-09T01:58:08;16.53;;;12.83;;
16029;SDS011;34770;49.272;11.070;2023-01-09T02:00:37;17.10;;;12.27;;
16029;SDS011;34770;49.272;11.070;2023-01-09T02:03:06;21.77;;;13.93;;
16029;SDS011;34770;49.272;11.070;2023-01-09T02:05:32;17.20;;;14.40;;
16029;SDS011;34770;49.272;11.070;2023-01-09T02:08:00;17.87;;;13.10;;
16029;SDS011;34770;49.272;11.070;2023-01-09T02:10:25;19.27;;;14.37;;
16029;SDS011;34770;49.272;11.070;2023-01-09T02:12:51;19.73;;;14.70;;
16029;SDS011;34770;49.272;11.070;2023-01-09T02:15:16;24.93;;;16.50;;
16029;SDS011;34770;49.272;11.070;2023-01-09T02:23:19;19.63;;;13.53;;
16029;SDS011;34770;49.272;11.070;2023-01-09T02:32:15;20.97;;;13.57;;
16029;SDS011;34770;49.272;11.070;2023-01-09T02:34:49;20.10;;;14.27;;
16029;SDS011;34770;49.272;11.070;2023-01-09T02:37:32;21.43;;;15.40;;
16029;SDS011;34770;49.272;11.070;2023-01-09T02:42:39;21.03;;;15.57;;
16029;SDS011;34770;49.272;11.070;2023-01-09T02:45:07;19.63;;;13.93;;
16029;SDS011;34770;49.272;11.070;2023-01-09T02:47:34;19.50;;;14.23;;
16029;SDS011;34770;49.272;11.070;2023-01-09T02:50:09;19.67;;;14.03;;
16029;SDS011;34770;49.272;11.070;2023-01-09T02:58:02;20.40;;;14.57;;
16029;SDS011;34770;49.272;11.070;2023-01-09T03:06:06;21.27;;;14.77;;
16029;SDS011;34770;49.272;11.070;2023-01-09T03:08:40;20.80;;;14.27;;
16029;SDS011;34770;49.272;11.070;2023-01-09T03:11:09;18.10;;;13.70;;
16029;SDS011;34770;49.272;11.070;2023-01-09T03:13:42;17.93;;;13.33;;
16029;SDS011;34770;49.272;11.070;2023-01-09T03:16:12;20.23;;;14.17;;
16029;SDS011;34770;49.272;11.070;2023-01-09T03:18:42;20.57;;;14.50;;
16029;SDS011;34770;49.272;11.070;2023-01-09T03:21:08;23.17;;;14.97;;
16029;SDS011;34770;49.272;11.070;2023-01-09T03:23:49;17.83;;;13.90;;
16029;SDS011;34770;49.272;11.070;2023-01-09T03:26:24;20.50;;;14.03;;
16029;SDS011;34770;49.272;11.070;2023-01-09T03:28:49;21.67;;;14.67;;
16029;SDS011;34770;49.272;11.070;2023-01-09T03:31:15;21.10;;;15.03;;
16029;SDS011;34770;49.272;11.070;2023-01-09T03:33:41;24.37;;;15.13;;
16029;SDS011;34770;49.272;11.070;2023-01-09T03:36:06;19.83;;;14.73;;
16029;SDS011;34770;49.272;11.070;2023-01-09T03:38:32;23.53;;;14.83;;
16029;SDS011;34770;49.272;11.070;2023-01-09T03:40:58;20.07;;;15.07;;
16029;SDS011;34770;49.272;11.070;2023-01-09T03:43:23;21.30;;;14.70;;
16029;SDS011;34770;49.272;11.070;2023-01-09T03:45:49;21.07;;;14.30;;
16029;SDS011;34770;49.272;11.070;2023-01-09T03:48:14;20.57;;;14.13;;
16029;SDS011;34770;49.272;11.070;2023-01-09T03:50:40;18.07;;;12.10;;
16029;SDS011;34770;49.272;11.070;2023-01-09T03:53:11;20.47;;;14.50;;
16029;SDS011;34770;49.272;11.070;2023-01-09T03:55:38;19.60;;;14.77;;
16029;SDS011;34770;49.272;11.070;2023-01-09T03:58:04;17.60;;;13.00;;
16029;SDS011;34770;49.272;11.070;2023-01-09T04:00:30;21.97;;;15.27;;
16029;SDS011;34770;49.272;11.070;2023-01-09T04:02:55;19.57;;;14.27;;
16029;SDS011;34770;49.272;11.070;2023-01-09T04:05:21;19.70;;;14.57;;
16029;SDS011;34770;49.272;11.070;2023-01-09T04:07:46;19.93;;;14.13;;
16029;SDS011;34770;49.272;11.070;2023-01-09T04:10:12;20.97;;;14.27;;
16029;SDS011;34770;49.272;11.070;2023-01-09T04:12:37;18.67;;;13.70;;
16029;SDS011;34770;49.272;11.070;2023-01-09T04:15:03;18.40;;;13.57;;
16029;SDS011;34770;49.272;11.070;2023-01-09T04:17:29;19.67;;;14.50;;
16029;SDS011;34770;49.272;11.070;2023-01-09T04:19:54;17.83;;;14.10;;
16029;SDS011;34770;49.272;11.070;2023-01-09T04:22:19;18.57;;;13.50;;
16029;SDS011;34770;49.272;11.070;2023-01-09T04:24:45;21.07;;;14.20;;
16029;SDS011;34770;49.272;11.070;2023-01-09T04:27:10;20.43;;;13.97;;
16029;SDS011;34770;49.272;11.070;2023-01-09T04:29:36;18.10;;;13.00;;
16029;SDS011;34770;49.272;11.070;2023-01-09T04:32:02;20.60;;;14.03;;
16029;SDS011;34770;49.272;11.070;2023-01-09T04:34:28;19.30;;;14.43;;
16029;SDS011;34770;49.272;11.070;2023-01-09T04:36:53;20.83;;;14.17;;
16029;SDS011;34770;49.272;11.070;2023-01-09T04:39:19;17.70;;;13.77;;
16029;SDS011;34770;49.272;11.070;2023-01-09T04:41:45;16.80;;;13.10;;
16029;SDS011;34770;49.272;11.070;2023-01-09T04:44:14;19.90;;;15.30;;
16029;SDS011;34770;49.272;11.070;2023-01-09T04:46:52;19.63;;;14.20;;
16029;SDS011;34770;49.272;11.070;2023-01-09T04:49:19;16.77;;;12.90;;
16029;SDS011;34770;49.272;11.070;2023-01-09T04:51:45;19.10;;;13.90;;
16029;SDS011;34770;49.272;11.070;2023-01-09T04:54:11;17.80;;;13.77;;
16029;SDS011;34770;49.272;11.070;2023-01-09T04:56:37;17.67;;;13.10;;
16029;SDS011;34770;49.272;11.070;2023-01-09T04:59:03;20.80;;;13.77;;
16029;SDS011;34770;49.272;11.070;2023-01-09T05:01:29;19.37;;;14.27;;
16029;SDS011;34770;49.272;11.070;2023-01-09T05:03:55;17.57;;;13.57;;
16029;SDS011;34770;49.272;11.070;2023-01-09T05:06:23;19.80;;;14.27;;
16029;SDS011;34770;49.272;11.070;2023-01-09T05:08:49;18.90;;;13.70;;
16029;SDS011;34770;49.272;11.070;2023-01-09T05:11:14;19.67;;;13.97;;
16029;SDS011;34770;49.272;11.070;2023-01-09T05:13:40;17.97;;;13.57;;
16029;SDS011;34770;49.272;11.070;2023-01-09T05:16:06;17.73;;;13.30;;
16029;SDS011;34770;49.272;11.070;2023-01-09T05:18:31;17.13;;;13.43;;
16029;SDS011;34770;49.272;11.070;2023-01-09T05:20:57;16.00;;;12.40;;
16029;SDS011;34770;49.272;11.070;2023-01-09T05:23:22;16.17;;;12.47;;
16029;SDS011;34770;49.272;11.070;2023-01-09T05:25:48;17.53;;;13.17;;
16029;SDS011;34770;49.272;11.070;2023-01-09T05:28:13;21.27;;;13.63;;
16029;SDS011;34770;49.272;11.070;2023-01-09T05:30:39;17.13;;;12.20;;
16029;SDS011;34770;49.272;11.070;2023-01-09T05:33:05;19.40;;;14.23;;
16029;SDS011;34770;49.272;11.070;2023-01-09T05:35:30;16.93;;;13.73;;
16029;SDS011;34770;49.272;11.070;2023-01-09T05:37:56;14.87;;;11.90;;
16029;SDS011;34770;49.272;11.070;2023-01-09T05:40:21;16.27;;;12.27;;
16029;SDS011;34770;49.272;11.070;2023-01-09T05:42:47;15.60;;;12.47;;
16029;SDS011;34770;49.272;11.070;2023-01-09T05:45:12;15.53;;;12.67;;
16029;SDS011;34770;49.272;11.070;2023-01-09T05:47:38;13.40;;;10.60;;
16029;SDS011;34770;49.272;11.070;2023-01-09T05:50:04;17.70;;;12.27;;
16029;SDS011;34770;49.272;11.070;2023-01-09T05:52:30;10.10;;;7.60;;
16029;SDS011;34770;49.272;11.070;2023-01-09T05:54:55;8.93;;;7.67;;
16029;SDS011;34770;49.272;11.070;2023-01-09T05:57:21;6.27;;;5.53;;
16029;SDS011;34770;49.272;11.070;2023-01-09T05:59:46;4.97;;;4.47;;
16029;SDS011;34770;49.272;11.070;2023-01-09T06:02:12;4.80;;;4.30;;
16029;SDS011;34770;49.272;11.070;2023-01-09T06:04:37;4.53;;;4.13;;
16029;SDS011;34770;49.272;11.070;2023-01-09T06:07:03;5.67;;;4.60;;
16029;SDS011;34770;49.272;11.070;2023-01-09T06:09:29;3.83;;;3.53;;
16029;SDS011;34770;49.272;11.070;2023-01-09T06:11:55;5.23;;;4.53;;
16029;SDS011;34770;49.272;11.070;2023-01-09T06:14:21;5.47;;;4.53;;
16029;SDS011;34770;49.272;11.070;2023-01-09T06:16:47;4.10;;;3.63;;
16029;SDS011;34770;49.272;11.070;2023-01-09T06:19:13;3.15;;;2.85;;
16029;SDS011;34770;49.272;11.070;2023-01-09T06:21:38;2.93;;;2.37;;
16029;SDS011;34770;49.272;11.070;2023-01-09T06:24:04;2.93;;;2.73;;
16029;SDS011;34770;49.272;11.070;2023-01-09T06:26:30;2.15;;;1.92;;
16029;SDS011;34770;49.272;11.070;2023-01-09T06:28:55;2.53;;;1.73;;
16029;SDS011;34770;49.272;11.070;2023-01-09T06:31:21;2.72;;;1.70;;
16029;SDS011;34770;49.272;11.070;2023-01-09T06:33:47;1.90;;;1.80;;
16029;SDS011;34770;49.272;11.070;2023-01-09T06:36:12;1.27;;;1.17;;
16029;SDS011;34770;49.272;11.070;2023-01-09T06:38:38;1.50;;;1.40;;
16029;SDS011;34770;49.272;11.070;2023-01-09T06:41:03;1.10;;;1.10;;
16029;SDS011;34770;49.272;11.070;2023-01-09T06:43:29;1.17;;;1.17;;
16029;SDS011;34770;49.272;11.070;2023-01-09T06:45:55;1.52;;;1.42;;
16029;SDS011;34770;49.272;11.070;2023-01-09T06:48:21;1.23;;;1.13;;
16029;SDS011;34770;49.272;11.070;2023-01-09T06:50:52;1.53;;;1.43;;
16029;SDS011;34770;49.272;11.070;2023-01-09T06:53:18;1.73;;;1.63;;
16029;SDS011;34770;49.272;11.070;2023-01-09T06:55:44;1.13;;;1.13;;
16029;SDS011;34770;49.272;11.070;2023-01-09T06:58:10;1.10;;;1.10;;
16029;SDS011;34770;49.272;11.070;2023-01-09T07:00:36;1.47;;;1.37;;
16029;SDS011;34770;49.272;11.070;2023-01-09T07:03:02;1.23;;;1.23;;
16029;SDS011;34770;49.272;11.070;2023-01-09T07:05:27;0.90;;;0.90;;
16029;SDS011;34770;49.272;11.070;2023-01-09T07:07:53;1.80;;;1.70;;
16029;SDS011;34770;49.272;11.070;2023-01-09T07:10:19;1.43;;;1.33;;
16029;SDS011;34770;49.272;11.070;2023-01-09T07:12:45;1.53;;;1.33;;
16029;SDS011;34770;49.272;11.070;2023-01-09T07:15:10;1.40;;;1.30;;
16029;SDS011;34770;49.272;11.070;2023-01-09T07:17:36;1.10;;;1.10;;
16029;SDS011;34770;49.272;11.070;2023-01-09T07:20:04;1.20;;;1.20;;
16029;SDS011;34770;49.272;11.070;2023-01-09T07:22:30;1.80;;;1.70;;
16029;SDS011;34770;49.272;11.070;2023-01-09T07:24:56;1.63;;;1.53;;
16029;SDS011;34770;49.272;11.070;2023-01-09T07:27:21;1.63;;;1.53;;
16029;SDS011;34770;49.272;11.070;2023-01-09T07:29:47;1.80;;;1.70;;
16029;SDS011;34770;49.272;11.070;2023-01-09T07:32:12;1.40;;;1.40;;
16029;SDS011;34770;49.272;11.070;2023-01-09T07:34:37;1.63;;;1.60;;
16029;SDS011;34770;49.272;11.070;2023-01-09T07:37:03;1.40;;;1.30;;
16029;SDS011;34770;49.272;11.070;2023-01-09T07:39:28;2.40;;;1.77;;
16029;SDS011;34770;49.272;11.070;2023-01-09T07:41:54;1.43;;;1.33;;
16029;SDS011;34770;49.272;11.070;2023-01-09T07:44:19;1.70;;;1.60;;
16029;SDS011;34770;49.272;11.070;2023-01-09T07:46:45;1.47;;;1.37;;
16029;SDS011;34770;49.272;11.070;2023-01-09T07:49:10;1.73;;;1.60;;
16029;SDS011;34770;49.272;11.070;2023-01-09T07:51:36;2.67;;;2.00;;
16029;SDS011;34770;49.272;11.070;2023-01-09T07:54:06;3.77;;;2.83;;
16029;SDS011;34770;49.272;11.070;2023-01-09T07:56:32;2.73;;;2.03;;
16029;SDS011;34770;49.272;11.070;2023-01-09T07:58:57;2.13;;;1.87;;
16029;SDS011;34770;49.272;11.070;2023-01-09T08:01:23;1.80;;;1.70;;
16029;SDS011;34770;49.272;11.070;2023-01-09T08:03:48;1.53;;;1.43;;
16029;SDS011;34770;49.272;11.070;2023-01-09T08:06:13;3.57;;;2.57;;
16029;SDS011;34770;49.272;11.070;2023-01-09T08:08:39;3.60;;;2.00;;
16029;SDS011;34770;49.272;11.070;2023-01-09T08:11:04;2.33;;;2.00;;
16029;SDS011;34770;49.272;11.070;2023-01-09T08:13:30;1.57;;;1.47;;
16029;SDS011;34770;49.272;11.070;2023-01-09T08:15:55;8.50;;;2.00;;
16029;SDS011;34770;49.272;11.070;2023-01-09T08:18:21;3.60;;;1.80;;
16029;SDS011;34770;49.272;11.070;2023-01-09T08:20:47;2.80;;;2.00;;
16029;SDS011;34770;49.272;11.070;2023-01-09T08:23:13;4.27;;;1.60;;
16029;SDS011;34770;49.272;11.070;2023-01-09T08:25:38;2.90;;;1.93;;
16029;SDS011;34770;49.272;11.070;2023-01-09T08:28:04;3.20;;;2.00;;
16029;SDS011;34770;49.272;11.070;2023-01-09T08:30:30;7.50;;;5.07;;
16029;SDS011;34770;49.272;11.070;2023-01-09T08:32:56;7.87;;;5.03;;
16029;SDS011;34770;49.272;11.070;2023-01-09T08:35:21;2.03;;;1.83;;
16029;SDS011;34770;49.272;11.070;2023-01-09T08:37:47;2.63;;;2.00;;
16029;SDS011;34770;49.272;11.070;2023-01-09T08:40:13;2.23;;;2.10;;
16029;SDS011;34770;49.272;11.070;2023-01-09T08:42:39;2.50;;;2.30;;
16029;SDS011;34770;49.272;11.070;2023-01-09T08:45:23;7.20;;;2.60;;
16029;SDS011;34770;49.272;11.070;2023-01-09T08:48:07;7.53;;;2.10;;
16029;SDS011;34770;49.272;11.070;2023-01-09T08:50:34;3.37;;;2.20;;
16029;SDS011;34770;49.272;11.070;2023-01-09T08:52:59;6.10;;;2.30;;
16029;SDS011;34770;49.272;11.070;2023-01-09T08:55:25;3.50;;;2.67;;
16029;SDS011;34770;49.272;11.070;2023-01-09T08:57:51;6.68;;;4.65;;
16029;SDS011;34770;49.272;11.070;2023-01-09T09:00:18;13.02;;;8.30;;
16029;SDS011;34770;49.272;11.070;2023-01-09T09:02:49;7.93;;;4.40;;
16029;SDS011;34770;49.272;11.070;2023-01-09T09:05:18;6.83;;;3.60;;
16029;SDS011;34770;49.272;11.070;2023-01-09T09:07:48;5.97;;;3.40;;
16029;SDS011;34770;49.272;11.070;2023-01-09T09:10:17;3.83;;;2.90;;
16029;SDS011;34770;49.272;11.070;2023-01-09T09:12:43;5.10;;;2.93;;
16029;SDS011;34770;49.272;11.070;2023-01-09T09:15:09;3.73;;;2.63;;
16029;SDS011;34770;49.272;11.070;2023-01-09T09:17:44;2.83;;;2.45;;
16029;SDS011;34770;49.272;11.070;2023-01-09T09:20:10;10.30;;;5.68;;
16029;SDS011;34770;49.272;11.070;2023-01-09T09:22:38;3.97;;;3.10;;
16029;SDS011;34770;49.272;11.070;2023-01-09T09:25:04;8.13;;;5.50;;
16029;SDS011;34770;49.272;11.070;2023-01-09T09:27:30;7.60;;;2.60;;
16029;SDS011;34770;49.272;11.070;2023-01-09T09:29:56;2.28;;;1.48;;
16029;SDS011;34770;49.272;11.070;2023-01-09T09:32:24;5.70;;;3.53;;
16029;SDS011;34770;49.272;11.070;2023-01-09T09:34:49;3.05;;;1.90;;
16029;SDS011;34770;49.272;11.070;2023-01-09T09:37:15;4.10;;;2.13;;
16029;SDS011;34770;49.272;11.070;2023-01-09T09:39:40;29.73;;;9.07;;
16029;SDS011;34770;49.272;11.070;2023-01-09T09:45:17;4.00;;;1.97;;
16029;SDS011;34770;49.272;11.070;2023-01-09T09:53:38;7.97;;;3.03;;
16029;SDS011;34770;49.272;11.070;2023-01-09T09:56:12;1.43;;;1.30;;
16029;SDS011;34770;49.272;11.070;2023-01-09T09:58:41;2.90;;;1.20;;
16029;SDS011;34770;49.272;11.070;2023-01-09T10:01:11;1.60;;;1.50;;
16029;SDS011;34770;49.272;11.070;2023-01-09T10:03:45;5.83;;;2.27;;
16029;SDS011;34770;49.272;11.070;2023-01-09T10:09:05;2.23;;;2.00;;
16029;SDS011;34770;49.272;11.070;2023-01-09T10:11:41;5.13;;;1.80;;
16029;SDS011;34770;49.272;11.070;2023-01-09T10:14:24;3.80;;;2.53;;
16029;SDS011;34770;49.272;11.070;2023-01-09T10:19:58;3.10;;;2.80;;
16029;SDS011;34770;49.272;11.070;2023-01-09T10:25:26;7.70;;;3.28;;
16029;SDS011;34770;49.272;11.070;2023-01-09T10:30:48;9.45;;;5.53;;
16029;SDS011;34770;49.272;11.070;2023-01-09T10:36:13;3.80;;;2.17;;
16029;SDS011;34770;49.272;11.070;2023-01-09T10:38:46;2.97;;;2.35;;
16029;SDS011;34770;49.272;11.070;2023-01-09T10:41:24;1.70;;;1.60;;
16029;SDS011;34770;49.272;11.070;2023-01-09T10:44:04;2.25;;;1.75;;
16029;SDS011;34770;49.272;11.070;2023-01-09T10:46:40;3.45;;;1.63;;
16029;SDS011;34770;49.272;11.070;2023-01-09T10:49:20;2.70;;;2.22;;
16029;SDS011;34770;49.272;11.070;2023-01-09T10:54:40;1.77;;;1.67;;
16029;SDS011;34770;49.272;11.070;2023-01-09T10:57:12;2.20;;;2.00;;
16029;SDS011;34770;49.272;11.070;2023-01-09T10:59:55;2.75;;;2.55;;
16029;SDS011;34770;49.272;11.070;2023-01-09T11:02:30;5.07;;;3.00;;
16029;SDS011;34770;49.272;11.070;2023-01-09T11:04:58;6.18;;;4.32;;
16029;SDS011;34770;49.272;11.070;2023-01-09T11:07:28;4.72;;;1.80;;
16029;SDS011;34770;49.272;11.070;2023-01-09T11:09:58;4.28;;;2.42;;
16029;SDS011;34770;49.272;11.070;2023-01-09T11:12:37;4.18;;;2.42;;
16029;SDS011;34770;49.272;11.070;2023-01-09T11:17:41;4.85;;;3.45;;
16029;SDS011;34770;49.272;11.070;2023-01-09T11:22:43;4.97;;;3.33;;
16029;SDS011;34770;49.272;11.070;2023-01-09T11:25:12;4.78;;;2.40;;
16029;SDS011;34770;49.272;11.070;2023-01-09T11:27:39;4.53;;;3.03;;
16029;SDS011;34770;49.272;11.070;2023-01-09T11:30:18;2.45;;;1.98;;
16029;SDS011;34770;49.272;11.070;2023-01-09T11:32:48;3.42;;;1.95;;
16029;SDS011;34770;49.272;11.070;2023-01-09T11:35:15;7.03;;;2.85;;
16029;SDS011;34770;49.272;11.070;2023-01-09T11:37:42;1.75;;;1.65;;
16029;SDS011;34770;49.272;11.070;2023-01-09T11:40:16;4.38;;;1.67;;
16029;SDS011;34770;49.272;11.070;2023-01-09T11:45:40;2.50;;;1.50;;
16029;SDS011;34770;49.272;11.070;2023-01-09T11:51:05;3.55;;;1.55;;
16029;SDS011;34770;49.272;11.070;2023-01-09T11:54:52;2.13;;;1.80;;
16029;SDS011;34770;49.272;11.070;2023-01-09T11:56:46;3.70;;;2.50;;
16029;SDS011;34770;49.272;11.070;2023-01-09T11:59:15;5.63;;;2.50;;
16029;SDS011;34770;49.272;11.070;2023-01-09T12:16:23;3.83;;;2.30;;
16029;SDS011;34770;49.272;11.070;2023-01-09T12:19:15;2.15;;;1.80;;
16029;SDS011;34770;49.272;11.070;2023-01-09T12:28:04;5.65;;;1.90;;
16029;SDS011;34770;49.272;11.070;2023-01-09T12:30:47;3.67;;;1.73;;
16029;SDS011;34770;49.272;11.070;2023-01-09T12:43:44;2.25;;;2.03;;
16029;SDS011;34770;49.272;11.070;2023-01-09T12:46:19;4.60;;;2.30;;
16029;SDS011;34770;49.272;11.070;2023-01-09T12:54:07;3.28;;;1.70;;
16029;SDS011;34770;49.272;11.070;2023-01-09T12:56:31;3.28;;;1.98;;
16029;SDS011;34770;49.272;11.070;2023-01-09T12:59:03;2.13;;;1.92;;
16029;SDS011;34770;49.272;11.070;2023-01-09T13:01:41;3.08;;;1.40;;
16029;SDS011;34770;49.272;11.070;2023-01-09T13:07:15;3.33;;;1.65;;
16029;SDS011;34770;49.272;11.070;2023-01-09T13:12:14;4.43;;;1.60;;
16029;SDS011;34770;49.272;11.070;2023-01-09T13:22:52;5.85;;;1.70;;
16029;SDS011;34770;49.272;11.070;2023-01-09T13:25:30;1.83;;;1.70;;
16029;SDS011;34770;49.272;11.070;2023-01-09T13:28:12;2.05;;;1.85;;
16029;SDS011;34770;49.272;11.070;2023-01-09T13:31:15;4.38;;;1.83;;
16029;SDS011;34770;49.272;11.070;2023-01-09T13:33:58;2.72;;;1.60;;
16029;SDS011;34770;49.272;11.070;2023-01-09T13:36:32;1.83;;;1.38;;
16029;SDS011;34770;49.272;11.070;2023-01-09T13:39:02;3.05;;;1.63;;
16029;SDS011;34770;49.272;11.070;2023-01-09T13:41:28;3.67;;;2.53;;
16029;SDS011;34770;49.272;11.070;2023-01-09T13:46:46;3.08;;;1.80;;
16029;SDS011;34770;49.272;11.070;2023-01-09T13:52:05;4.72;;;1.67;;
16029;SDS011;34770;49.272;11.070;2023-01-09T13:57:25;3.88;;;2.42;;
16029;SDS011;34770;49.272;11.070;2023-01-09T13:59:58;1.80;;;1.70;;
16029;SDS011;34770;49.272;11.070;2023-01-09T14:05:11;6.32;;;2.13;;
16029;SDS011;34770;49.272;11.070;2023-01-09T14:08:03;5.47;;;2.60;;
16029;SDS011;34770;49.272;11.070;2023-01-09T14:13:14;2.45;;;1.80;;
16029;SDS011;34770;49.272;11.070;2023-01-09T14:15:48;3.22;;;1.83;;
16029;SDS011;34770;49.272;11.070;2023-01-09T14:18:17;2.08;;;1.67;;
16029;SDS011;34770;49.272;11.070;2023-01-09T14:20:59;2.33;;;1.88;;
16029;SDS011;34770;49.272;11.070;2023-01-09T14:23:36;11.30;;;5.32;;
16029;SDS011;34770;49.272;11.070;2023-01-09T14:26:18;7.15;;;4.78;;
16029;SDS011;34770;49.272;11.070;2023-01-09T14:28:48;13.07;;;7.30;;
16029;SDS011;34770;49.272;11.070;2023-01-09T14:31:31;13.52;;;6.93;;
16029;SDS011;34770;49.272;11.070;2023-01-09T14:34:16;10.10;;;4.18;;
16029;SDS011;34770;49.272;11.070;2023-01-09T14:36:51;13.82;;;6.47;;
16029;SDS011;34770;49.272;11.070;2023-01-09T14:39:21;7.13;;;4.97;;
16029;SDS011;34770;49.272;11.070;2023-01-09T14:41:52;9.43;;;5.57;;
16029;SDS011;34770;49.272;11.070;2023-01-09T15:00:53;6.35;;;3.72;;
16029;SDS011;34770;49.272;11.070;2023-01-09T15:03:30;10.60;;;5.78;;
16029;SDS011;34770;49.272;11.070;2023-01-09T15:05:58;3.30;;;2.72;;
16029;SDS011;34770;49.272;11.070;2023-01-09T15:08:25;3.63;;;2.63;;
16029;SDS011;34770;49.272;11.070;2023-01-09T15:10:52;3.58;;;2.35;;
16029;SDS011;34770;49.272;11.070;2023-01-09T15:13:24;6.28;;;2.60;;
16029;SDS011;34770;49.272;11.070;2023-01-09T15:15:56;1.92;;;1.60;;
16029;SDS011;34770;49.272;11.070;2023-01-09T15:18:24;2.90;;;1.38;;
16029;SDS011;34770;49.272;11.070;2023-01-09T15:20:56;2.03;;;1.92;;
16029;SDS011;34770;49.272;11.070;2023-01-09T15:23:26;1.73;;;1.63;;
16029;SDS011;34770;49.272;11.070;2023-01-09T15:25:56;2.33;;;2.10;;
16029;SDS011;34770;49.272;11.070;2023-01-09T15:28:39;1.58;;;1.48;;
16029;SDS011;34770;49.272;11.070;2023-01-09T15:31:13;2.35;;;1.42;;
16029;SDS011;34770;49.272;11.070;2023-01-09T15:33:42;1.48;;;1.38;;
16029;SDS011;34770;49.272;11.070;2023-01-09T15:36:12;3.60;;;1.60;;
16029;SDS011;34770;49.272;11.070;2023-01-09T15:38:41;1.60;;;1.40;;
16029;SDS011;34770;49.272;11.070;2023-01-09T15:41:09;2.13;;;1.97;;
16029;SDS011;34770;49.272;11.070;2023-01-09T15:43:40;2.08;;;1.60;;
16029;SDS011;34770;49.272;11.070;2023-01-09T15:46:09;5.72;;;1.35;;
16029;SDS011;34770;49.272;11.070;2023-01-09T15:48:36;2.35;;;1.60;;
16029;SDS011;34770;49.272;11.070;2023-01-09T15:51:08;2.95;;;1.75;;
16029;SDS011;34770;49.272;11.070;2023-01-09T15:53:41;3.20;;;1.75;;
16029;SDS011;34770;49.272;11.070;2023-01-09T15:58:37;4.27;;;3.53;;
16029;SDS011;34770;49.272;11.070;2023-01-09T16:01:38;6.73;;;4.30;;
16029;SDS011;34770;49.272;11.070;2023-01-09T16:06:30;12.23;;;4.97;;
16029;SDS011;34770;49.272;11.070;2023-01-09T16:08:58;4.30;;;3.10;;
16029;SDS011;34770;49.272;11.070;2023-01-09T16:13:55;3.37;;;2.23;;
16029;SDS011;34770;49.272;11.070;2023-01-09T16:16:27;2.57;;;2.37;;
16029;SDS011;34770;49.272;11.070;2023-01-09T16:18:56;4.90;;;3.37;;
16029;SDS011;34770;49.272;11.070;2023-01-09T16:21:27;3.75;;;2.75;;
16029;SDS011;34770;49.272;11.070;2023-01-09T16:24:33;2.50;;;2.30;;
16029;SDS011;34770;49.272;11.070;2023-01-09T16:26:51;6.50;;;3.47;;
16029;SDS011;34770;49.272;11.070;2023-01-09T16:29:34;11.17;;;7.67;;
16029;SDS011;34770;49.272;11.070;2023-01-09T16:32:02;9.00;;;5.33;;
16029;SDS011;34770;49.272;11.070;2023-01-09T16:34:30;12.40;;;7.90;;
16029;SDS011;34770;49.272;11.070;2023-01-09T16:36:58;7.67;;;3.90;;
16029;SDS011;34770;49.272;11.070;2023-01-09T16:39:24;6.70;;;4.20;;
16029;SDS011;34770;49.272;11.070;2023-01-09T16:41:50;2.83;;;2.20;;
16029;SDS011;34770;49.272;11.070;2023-01-09T16:44:34;4.27;;;3.50;;
16029;SDS011;34770;49.272;11.070;2023-01-09T16:47:00;7.37;;;4.17;;
16029;SDS011;34770;49.272;11.070;2023-01-09T16:49:26;9.83;;;5.57;;
16029;SDS011;34770;49.272;11.070;2023-01-09T16:51:52;7.40;;;4.80;;
16029;SDS011;34770;49.272;11.070;2023-01-09T16:54:19;8.70;;;4.60;;
16029;SDS011;34770;49.272;11.070;2023-01-09T16:56:46;3.90;;;3.03;;
16029;SDS011;34770;49.272;11.070;2023-01-09T16:59:14;4.73;;;3.13;;
16029;SDS011;34770;49.272;11.070;2023-01-09T17:01:45;3.87;;;3.13;;
16029;SDS011;34770;49.272;11.070;2023-01-09T17:04:12;6.73;;;4.17;;
16029;SDS011;34770;49.272;11.070;2023-01-09T17:06:39;7.87;;;3.13;;
16029;SDS011;34770;49.272;11.070;2023-01-09T17:09:07;4.57;;;3.10;;
16029;SDS011;34770;49.272;11.070;2023-01-09T17:11:35;4.83;;;2.50;;